ADDS METAR Data INFO
IDs: Format: Raw Decoded Include TAF

Data at: 2040 UTC 16 Dec 2017

KMFE 161953Z 30009KT 8SM OVC008 10/08 A3004 RMK AO2 RAB19E49 SLP170 P0000 T01000078